Estación de Monte Patria - Chilecito

Ultimos registro cada 15 minutos 39
Estación Fecha / Hora Temperatura Humedad Lluvia Velocidad Dirección Radiación Presion
39 Monte Patria - Chilecito 02-05-2026 09:30 23,2 22,5 0 0 240 384,4 937,4
38 Monte Patria - Chilecito 02-05-2026 09:15 23,9 21,8 0 0 240 41,9 937,5
37 Monte Patria - Chilecito 02-05-2026 09:00 20,9 29,8 0 0 240 39,4 937,6
36 Monte Patria - Chilecito 02-05-2026 08:45 20,1 29,3 0 0 237 39,4 937,7
35 Monte Patria - Chilecito 02-05-2026 08:30 17,1 32,4 0 0 237 174,4 937,7
34 Monte Patria - Chilecito 02-05-2026 08:15 16,2 29,5 0 0 237 184,4 937,6
33 Monte Patria - Chilecito 02-05-2026 08:00 13,8 30,2 0 0 237 10,6 937,6
32 Monte Patria - Chilecito 02-05-2026 07:45 13,2 32,2 0 0 237 8,1 937,6
31 Monte Patria - Chilecito 02-05-2026 07:30 13,3 31,6 0 0 237 4,4 937,5
30 Monte Patria - Chilecito 02-05-2026 07:15 12,8 33,7 0 0 237 1,9 937,4
29 Monte Patria - Chilecito 02-05-2026 07:00 12 38,3 0 0 237 0,6 937,4
28 Monte Patria - Chilecito 02-05-2026 06:45 13,4 32,4 0 0 240 0,6 937,3
27 Monte Patria - Chilecito 02-05-2026 06:30 13,2 33,7 0 0 240 0,6 937,3
26 Monte Patria - Chilecito 02-05-2026 06:15 12,3 35 0 0 240 0,6 937,1
25 Monte Patria - Chilecito 02-05-2026 06:00 12,9 34,6 0 0 240 0,6 937
24 Monte Patria - Chilecito 02-05-2026 05:45 13,4 34,8 0 0 240 0,6 937,1
23 Monte Patria - Chilecito 02-05-2026 05:30 13,1 37,3 0 0 240 0,6 937,1
22 Monte Patria - Chilecito 02-05-2026 05:15 13 37,5 0 0 240 0,6 937,1
21 Monte Patria - Chilecito 02-05-2026 05:00 13,6 37,5 0 0 240 0,6 937,1
20 Monte Patria - Chilecito 02-05-2026 04:45 13,8 39,1 0 0 240 0,6 937,2
19 Monte Patria - Chilecito 02-05-2026 04:30 13,5 42 0 0 240 0,6 937,2
18 Monte Patria - Chilecito 02-05-2026 04:15 14,4 39,3 0 0 240 0,6 937,2
17 Monte Patria - Chilecito 02-05-2026 04:00 13,8 41,6 0 0 240 0,6 937,3
16 Monte Patria - Chilecito 02-05-2026 03:45 13,9 41,8 0 0 240 0,6 937,3
15 Monte Patria - Chilecito 02-05-2026 03:30 14 43,1 0 0 240 0,6 937,4
14 Monte Patria - Chilecito 02-05-2026 03:15 13,8 45,1 0 0 240 0,6 937,5
13 Monte Patria - Chilecito 02-05-2026 03:00 14,1 44,4 0 0 240 0,6 937,7
12 Monte Patria - Chilecito 02-05-2026 02:45 13,8 45,8 0 0 240 0,6 937,9
11 Monte Patria - Chilecito 02-05-2026 02:30 14 46,1 0 0 240 0,6 938,1
10 Monte Patria - Chilecito 02-05-2026 02:15 14,5 45,2 0 0 240 0,6 938,2
9 Monte Patria - Chilecito 02-05-2026 02:00 13,9 46,6 0 0 240 0,6 938,4
8 Monte Patria - Chilecito 02-05-2026 01:45 14,2 47,2 0 0 240 0,6 938,4
7 Monte Patria - Chilecito 02-05-2026 01:30 14,6 47,6 0 0 240 0,6 938,5
6 Monte Patria - Chilecito 02-05-2026 01:15 14,7 46,8 0 0 240 0,6 938,5
5 Monte Patria - Chilecito 02-05-2026 01:00 14,6 48 0 0 240 0,6 938,6
4 Monte Patria - Chilecito 02-05-2026 00:45 14,5 49,4 0 0 240 0,6 938,7
3 Monte Patria - Chilecito 02-05-2026 00:30 14,9 47,8 0 0 240 0,6 938,9
2 Monte Patria - Chilecito 02-05-2026 00:15 14,9 48,7 0 0 240 0,6 938,9
1 Monte Patria - Chilecito 02-05-2026 00:00 15,2 49,1 0 0 240 0,6 938,9